createdAt,value
2023-10-21T00:01:29.975Z,27.15
2023-10-21T00:03:56.605Z,25.00
2023-10-21T00:06:23.725Z,22.63
2023-10-21T00:08:50.380Z,23.73
2023-10-21T00:11:17.353Z,25.87
2023-10-21T00:13:44.168Z,22.40
2023-10-21T00:16:12.319Z,21.07
2023-10-21T00:18:39.008Z,22.30
2023-10-21T00:21:05.683Z,24.00
2023-10-21T00:23:33.126Z,23.90
2023-10-21T00:26:04.062Z,25.37
2023-10-21T00:28:30.646Z,27.00
2023-10-21T00:30:58.397Z,30.53
2023-10-21T00:33:25.590Z,22.47
2023-10-21T00:35:52.404Z,24.13
2023-10-21T00:38:19.121Z,21.87
2023-10-21T00:40:57.089Z,26.37
2023-10-21T00:43:40.900Z,23.87
2023-10-21T00:46:18.090Z,22.25
2023-10-21T00:48:46.309Z,19.50
2023-10-21T00:51:13.018Z,22.93
2023-10-21T00:53:40.771Z,21.67
2023-10-21T00:56:07.790Z,22.95
2023-10-21T00:58:36.062Z,28.33
2023-10-21T01:01:10.341Z,25.90
2023-10-21T01:03:38.381Z,24.40
2023-10-21T01:06:08.122Z,28.20
2023-10-21T01:08:43.194Z,28.03
2023-10-21T01:11:11.224Z,24.25
2023-10-21T01:13:48.832Z,26.05
2023-10-21T01:16:17.976Z,26.27
2023-10-21T01:18:44.882Z,26.10
2023-10-21T01:21:16.482Z,24.10
2023-10-21T01:23:44.110Z,24.67
2023-10-21T01:26:11.112Z,23.83
2023-10-21T01:28:37.899Z,21.90
2023-10-21T01:31:05.121Z,22.53
2023-10-21T01:33:33.162Z,24.00
2023-10-21T01:36:00.313Z,21.08
2023-10-21T01:38:27.617Z,23.93
2023-10-21T01:40:54.753Z,21.60
2023-10-21T01:43:22.572Z,23.60
2023-10-21T01:45:50.232Z,21.03
2023-10-21T01:48:17.256Z,23.70
2023-10-21T01:50:44.691Z,23.93
2023-10-21T01:53:13.488Z,20.33
2023-10-21T01:55:43.589Z,24.40
2023-10-21T01:58:12.795Z,23.60
2023-10-21T02:00:41.449Z,26.23
2023-10-21T02:03:10.294Z,23.70
2023-10-21T02:05:40.300Z,27.67
2023-10-21T02:08:07.617Z,29.10
2023-10-21T02:10:36.265Z,28.73
2023-10-21T02:13:06.132Z,30.15
2023-10-21T02:15:36.453Z,28.30
2023-10-21T02:18:03.410Z,23.33
2023-10-21T02:20:30.578Z,27.13
2023-10-21T02:22:57.679Z,26.90
2023-10-21T02:25:24.643Z,29.77
2023-10-21T02:27:51.616Z,27.30
2023-10-21T02:30:18.569Z,27.27
2023-10-21T02:32:46.443Z,25.50
2023-10-21T02:35:14.915Z,29.83
2023-10-21T02:37:42.914Z,29.47
2023-10-21T02:40:11.335Z,32.80
2023-10-21T02:42:39.406Z,27.50
2023-10-21T02:45:07.208Z,32.03
2023-10-21T02:47:40.419Z,31.70
2023-10-21T02:50:08.247Z,28.20
2023-10-21T02:52:38.907Z,28.13
2023-10-21T02:55:06.696Z,37.33
2023-10-21T02:57:33.607Z,31.92
2023-10-21T03:00:00.436Z,31.45
2023-10-21T03:02:28.093Z,40.60
2023-10-21T03:04:57.157Z,38.20
2023-10-21T03:07:24.680Z,34.10
2023-10-21T03:09:51.263Z,31.70
2023-10-21T03:12:18.577Z,38.47
2023-10-21T03:14:46.150Z,34.97
2023-10-21T03:17:14.486Z,35.13
2023-10-21T03:19:41.093Z,30.88
2023-10-21T03:22:07.756Z,34.05
2023-10-21T03:24:34.456Z,34.57
2023-10-21T03:27:01.206Z,38.30
2023-10-21T03:29:27.984Z,34.20
2023-10-21T03:31:54.511Z,27.40
2023-10-21T03:34:21.131Z,29.85
2023-10-21T03:36:47.718Z,28.17
2023-10-21T03:39:14.641Z,29.75
2023-10-21T03:41:41.266Z,34.63
2023-10-21T03:44:10.347Z,25.65
2023-10-21T03:46:38.520Z,26.47
2023-10-21T03:49:05.259Z,24.90
2023-10-21T03:51:31.847Z,25.37
2023-10-21T03:53:59.033Z,26.97
2023-10-21T03:56:25.643Z,24.93
2023-10-21T03:58:52.396Z,30.30
2023-10-21T04:01:21.547Z,29.33
2023-10-21T04:03:48.360Z,27.57
2023-10-21T04:06:17.086Z,27.50
2023-10-21T04:08:43.874Z,28.20
2023-10-21T04:11:10.459Z,27.27
2023-10-21T04:13:36.986Z,27.20
2023-10-21T04:16:06.972Z,30.77
2023-10-21T04:18:34.192Z,29.10
2023-10-21T04:21:00.867Z,25.70
2023-10-21T04:23:29.742Z,26.37
2023-10-21T04:25:56.518Z,32.40
2023-10-21T04:28:23.144Z,30.27
2023-10-21T04:30:49.754Z,32.00
2023-10-21T04:33:19.557Z,31.07
2023-10-21T04:35:46.406Z,31.40
2023-10-21T04:38:13.053Z,27.37
2023-10-21T04:40:39.650Z,29.50
2023-10-21T04:43:06.252Z,32.93
2023-10-21T04:45:32.932Z,36.13
2023-10-21T04:48:00.394Z,32.67
2023-10-21T04:50:28.574Z,29.87
2023-10-21T04:52:55.442Z,37.03
2023-10-21T04:55:22.337Z,31.30
2023-10-21T04:57:49.068Z,34.60
2023-10-21T05:00:16.882Z,29.23
2023-10-21T05:02:43.769Z,31.90
2023-10-21T05:05:10.739Z,31.60
2023-10-21T05:07:37.440Z,29.93
2023-10-21T05:10:05.856Z,29.53
2023-10-21T05:12:32.491Z,28.70
2023-10-21T05:14:59.116Z,26.07
2023-10-21T05:17:25.675Z,26.47
2023-10-21T05:19:53.764Z,27.27
2023-10-21T05:22:20.606Z,24.70
2023-10-21T05:24:47.274Z,27.33
2023-10-21T05:27:13.884Z,23.97
2023-10-21T05:29:40.706Z,32.07
2023-10-21T05:32:07.285Z,28.17
2023-10-21T05:34:34.013Z,25.20
2023-10-21T05:37:00.599Z,23.77
2023-10-21T05:39:27.425Z,26.67
2023-10-21T05:41:53.971Z,22.00
2023-10-21T05:44:27.497Z,23.37
2023-10-21T05:47:04.178Z,26.37
2023-10-21T05:49:32.016Z,26.00
2023-10-21T05:51:58.881Z,26.97
2023-10-21T05:54:25.805Z,22.13
2023-10-21T05:56:52.381Z,26.23
2023-10-21T05:59:19.118Z,22.83
2023-10-21T06:01:46.150Z,25.77
2023-10-21T06:04:12.781Z,26.67
2023-10-21T06:06:39.565Z,25.17
2023-10-21T06:09:06.299Z,28.33
2023-10-21T06:11:32.876Z,31.97
2023-10-21T06:13:59.413Z,36.25
2023-10-21T06:16:26.578Z,43.33
2023-10-21T06:18:54.221Z,46.70
2023-10-21T06:21:20.924Z,52.60
2023-10-21T06:23:47.555Z,56.80
2023-10-21T06:26:14.206Z,52.90
2023-10-21T06:28:40.851Z,43.05
2023-10-21T06:31:07.512Z,36.80
2023-10-21T06:33:35.243Z,26.80
2023-10-21T06:36:02.426Z,20.45
2023-10-21T06:38:29.321Z,15.43
2023-10-21T06:41:06.810Z,19.23
2023-10-21T06:43:41.199Z,16.00
2023-10-21T06:46:07.978Z,15.68
2023-10-21T06:48:34.732Z,17.92
2023-10-21T06:51:01.559Z,16.83
2023-10-21T06:53:29.117Z,17.83
2023-10-21T06:55:55.909Z,15.18
2023-10-21T06:58:22.484Z,12.73
2023-10-21T07:00:49.121Z,13.20
2023-10-21T07:03:15.732Z,8.25
2023-10-21T07:05:42.513Z,8.82
2023-10-21T07:08:09.163Z,7.55
2023-10-21T07:10:35.948Z,8.02
2023-10-21T07:13:03.221Z,10.95
2023-10-21T07:15:31.793Z,8.27
2023-10-21T07:18:01.867Z,8.75
2023-10-21T07:20:28.580Z,9.55
2023-10-21T07:22:55.640Z,8.65
2023-10-21T07:25:24.753Z,9.98
2023-10-21T07:27:51.641Z,9.30
2023-10-21T07:30:18.751Z,8.18
2023-10-21T07:32:45.883Z,7.10
2023-10-21T07:35:12.490Z,6.03
2023-10-21T07:37:39.017Z,4.75
2023-10-21T07:40:11.110Z,4.50
2023-10-21T07:42:38.315Z,3.47
2023-10-21T07:45:06.099Z,3.97
2023-10-21T07:47:34.436Z,3.63
2023-10-21T07:50:06.929Z,4.20
2023-10-21T07:52:34.258Z,4.45
2023-10-21T07:55:00.796Z,3.72
2023-10-21T07:57:27.902Z,4.53
2023-10-21T07:59:54.540Z,1.60
2023-10-21T08:02:22.625Z,2.08
2023-10-21T08:04:49.585Z,1.70
2023-10-21T08:07:16.334Z,2.92
2023-10-21T08:09:42.858Z,2.20
2023-10-21T08:12:09.636Z,1.60
2023-10-21T08:14:38.176Z,0.50
2023-10-21T08:17:09.032Z,0.73
2023-10-21T08:19:36.136Z,0.60
2023-10-21T08:22:03.175Z,0.30
2023-10-21T08:24:29.983Z,0.50
2023-10-21T08:26:56.678Z,0.95
2023-10-21T08:29:23.418Z,0.30
2023-10-21T08:31:50.096Z,0.30
2023-10-21T08:34:16.718Z,0.30
2023-10-21T08:36:43.778Z,0.45
2023-10-21T08:39:11.022Z,1.38
2023-10-21T08:41:41.065Z,1.65
2023-10-21T08:44:08.927Z,0.65
2023-10-21T08:46:38.944Z,0.38
2023-10-21T08:49:06.538Z,0.82
2023-10-21T08:51:36.544Z,0.73
2023-10-21T08:54:04.557Z,0.43
2023-10-21T08:56:32.251Z,0.50
2023-10-21T08:58:58.795Z,0.75
2023-10-21T09:01:26.140Z,0.50
2023-10-21T09:03:53.159Z,0.68
2023-10-21T09:06:19.918Z,0.70
2023-10-21T09:08:48.618Z,0.30
2023-10-21T09:11:17.975Z,0.73
2023-10-21T09:13:44.923Z,0.82
2023-10-21T09:16:23.492Z,0.50
2023-10-21T09:19:11.902Z,0.40
2023-10-21T09:21:40.877Z,0.55
2023-10-21T09:24:11.427Z,0.63
2023-10-21T09:26:48.988Z,0.30
2023-10-21T09:29:20.745Z,0.20
2023-10-21T09:31:53.048Z,0.65
2023-10-21T09:34:33.174Z,0.32
2023-10-21T09:37:04.451Z,0.35
2023-10-21T09:39:37.944Z,0.30
2023-10-21T09:42:06.452Z,0.65
2023-10-21T09:44:37.189Z,1.50
2023-10-21T09:47:06.126Z,0.20
2023-10-21T09:49:41.736Z,0.30
2023-10-21T09:52:16.572Z,0.30
2023-10-21T09:54:49.302Z,0.93
2023-10-21T09:57:16.409Z,0.20
2023-10-21T09:59:48.321Z,0.20
2023-10-21T10:02:16.066Z,0.93
2023-10-21T10:04:43.961Z,0.95
2023-10-21T10:07:19.866Z,0.40
2023-10-21T10:09:56.610Z,0.30
2023-10-21T10:12:27.222Z,0.10
2023-10-21T10:14:58.521Z,0.40
2023-10-21T10:17:51.127Z,0.95
2023-10-21T10:20:20.674Z,0.32
2023-10-21T10:23:09.142Z,0.40
2023-10-21T10:25:39.551Z,0.35
2023-10-21T10:28:20.435Z,0.40
2023-10-21T10:30:52.781Z,0.68
2023-10-21T10:33:25.039Z,0.50
2023-10-21T10:35:59.088Z,0.40
2023-10-21T10:38:32.532Z,0.45
2023-10-21T10:41:07.574Z,0.30
2023-10-21T10:43:35.365Z,0.50
2023-10-21T10:46:02.581Z,0.75
2023-10-21T10:48:30.517Z,0.40
2023-10-21T10:50:59.175Z,0.30
2023-10-21T10:53:26.010Z,0.47
2023-10-21T10:55:57.097Z,0.75
2023-10-21T10:58:27.884Z,0.38
2023-10-21T11:00:55.032Z,0.30
2023-10-21T11:03:29.687Z,0.73
2023-10-21T11:05:57.820Z,0.35
2023-10-21T11:08:26.089Z,0.60
2023-10-21T11:10:54.527Z,0.35
2023-10-21T11:13:21.899Z,0.40
2023-10-21T11:15:53.014Z,0.30
2023-10-21T11:18:19.857Z,0.47
2023-10-21T11:20:50.548Z,0.43
2023-10-21T11:23:21.961Z,0.60
2023-10-21T11:25:51.010Z,0.57
2023-10-21T11:28:18.399Z,0.38
2023-10-21T11:30:46.010Z,0.30
2023-10-21T11:33:13.319Z,0.65
2023-10-21T11:35:45.684Z,0.30
2023-10-21T11:38:19.938Z,0.20
2023-10-21T11:40:47.530Z,0.30
2023-10-21T11:43:17.852Z,0.30
2023-10-21T11:45:44.913Z,0.30
2023-10-21T11:48:11.806Z,0.22
2023-10-21T11:50:43.268Z,0.25
2023-10-21T11:53:14.318Z,0.30
2023-10-21T11:55:52.585Z,0.38
2023-10-21T11:58:47.603Z,0.35
2023-10-21T12:01:33.152Z,0.20
2023-10-21T12:03:59.869Z,0.40
2023-10-21T12:06:45.379Z,0.30
2023-10-21T12:09:50.503Z,0.35
2023-10-21T12:12:35.977Z,0.20
2023-10-21T12:15:22.287Z,0.68
2023-10-21T12:17:51.875Z,0.22
2023-10-21T12:20:40.164Z,0.40
2023-10-21T12:23:38.704Z,0.35
2023-10-21T12:26:24.164Z,1.05
2023-10-21T12:29:10.655Z,0.50
2023-10-21T12:31:55.633Z,0.30
2023-10-21T12:34:34.617Z,0.30
2023-10-21T12:37:07.897Z,0.38
2023-10-21T12:39:57.544Z,0.30
2023-10-21T12:42:28.889Z,0.88
2023-10-21T12:44:58.837Z,0.30
2023-10-21T12:47:25.912Z,1.27
2023-10-21T12:49:56.816Z,0.30
2023-10-21T12:52:24.326Z,0.30
2023-10-21T12:54:52.843Z,0.32
2023-10-21T12:57:19.753Z,0.40
2023-10-21T12:59:46.322Z,0.40
2023-10-21T13:02:12.968Z,0.40
2023-10-21T13:04:41.916Z,0.38
2023-10-21T13:07:10.362Z,0.30
2023-10-21T13:09:39.100Z,0.30
2023-10-21T13:12:10.879Z,0.25
2023-10-21T13:14:39.739Z,0.40
2023-10-21T13:17:09.240Z,1.08
2023-10-21T13:19:35.900Z,0.65
2023-10-21T13:22:06.810Z,0.35
2023-10-21T13:24:36.018Z,0.43
2023-10-21T13:27:05.893Z,0.65
2023-10-21T13:29:35.809Z,0.40
2023-10-21T13:32:02.411Z,0.17
2023-10-21T13:34:29.104Z,0.95
2023-10-21T13:36:57.058Z,0.40
2023-10-21T13:39:24.372Z,0.60
2023-10-21T13:41:50.962Z,0.40
2023-10-21T13:44:18.104Z,1.15
2023-10-21T13:46:44.900Z,0.25
2023-10-21T13:49:20.525Z,0.43
2023-10-21T13:51:47.818Z,0.30
2023-10-21T13:54:15.463Z,0.75
2023-10-21T13:56:43.107Z,0.68
2023-10-21T13:59:14.443Z,0.40
2023-10-21T14:01:44.860Z,0.40
2023-10-21T14:04:13.738Z,0.40
2023-10-21T14:06:41.017Z,0.30
2023-10-21T14:09:13.688Z,0.73
2023-10-21T14:11:40.289Z,0.77
2023-10-21T14:14:06.801Z,0.45
2023-10-21T14:16:33.518Z,0.50
2023-10-21T14:19:00.611Z,3.90
2023-10-21T14:21:27.178Z,0.47
2023-10-21T14:23:55.046Z,0.40
2023-10-21T14:26:21.548Z,0.82
2023-10-21T14:28:49.065Z,0.70
2023-10-21T14:31:27.209Z,3.42
2023-10-21T14:33:53.821Z,0.70
2023-10-21T14:36:20.948Z,1.33
2023-10-21T14:38:51.329Z,1.23
2023-10-21T14:41:18.661Z,2.22
2023-10-21T14:43:46.096Z,1.42
2023-10-21T14:46:12.967Z,2.92
2023-10-21T14:48:42.320Z,1.48
2023-10-21T14:51:09.396Z,1.02
2023-10-21T14:53:36.055Z,1.92
2023-10-21T14:56:02.594Z,0.73
2023-10-21T14:58:29.280Z,0.70
2023-10-21T15:00:56.103Z,0.98
2023-10-21T15:03:23.914Z,1.63
2023-10-21T15:05:52.199Z,1.40
2023-10-21T15:08:24.916Z,1.50
2023-10-21T15:10:52.778Z,3.50
2023-10-21T15:13:21.057Z,0.80
2023-10-21T15:15:49.776Z,2.35
2023-10-21T15:18:17.154Z,1.10
2023-10-21T15:20:43.811Z,2.13
2023-10-21T15:23:10.320Z,1.58
2023-10-21T15:25:37.789Z,1.92
2023-10-21T15:28:05.483Z,1.40
2023-10-21T15:30:32.120Z,1.67
2023-10-21T15:32:58.732Z,2.72
2023-10-21T15:35:26.422Z,1.58
2023-10-21T15:37:53.344Z,2.70
2023-10-21T15:40:27.763Z,1.63
2023-10-21T15:42:54.358Z,1.17
2023-10-21T15:45:20.929Z,1.08
2023-10-21T15:47:47.468Z,2.83
2023-10-21T15:50:13.981Z,2.22
2023-10-21T15:52:40.873Z,2.05
2023-10-21T15:55:07.686Z,2.05
2023-10-21T15:57:36.126Z,1.75
2023-10-21T16:00:12.967Z,2.05
2023-10-21T16:02:41.982Z,3.05
2023-10-21T16:05:09.083Z,3.95
2023-10-21T16:07:50.216Z,4.28
2023-10-21T16:10:23.307Z,4.50
2023-10-21T16:12:49.884Z,4.13
2023-10-21T16:15:16.803Z,4.43
2023-10-21T16:17:43.460Z,4.43
2023-10-21T16:20:10.465Z,5.13
2023-10-21T16:22:38.056Z,3.75
2023-10-21T16:25:05.215Z,4.20
2023-10-21T16:27:31.994Z,4.55
2023-10-21T16:29:58.659Z,3.63
2023-10-21T16:32:25.365Z,3.83
2023-10-21T16:34:53.542Z,4.28
2023-10-21T16:37:20.114Z,4.15
2023-10-21T16:39:46.977Z,5.05
2023-10-21T16:42:16.098Z,5.70
2023-10-21T16:44:42.929Z,4.63
2023-10-21T16:47:09.680Z,5.32
2023-10-21T16:49:36.359Z,8.85
2023-10-21T16:52:03.154Z,7.78
2023-10-21T16:54:29.982Z,6.80
2023-10-21T16:56:56.636Z,7.13
2023-10-21T16:59:24.209Z,4.18
2023-10-21T17:01:50.982Z,5.72
2023-10-21T17:04:17.669Z,5.00
2023-10-21T17:06:44.365Z,6.20
2023-10-21T17:09:12.655Z,7.43
2023-10-21T17:11:40.818Z,8.48
2023-10-21T17:14:07.406Z,6.32
2023-10-21T17:16:35.864Z,7.13
2023-10-21T17:19:02.545Z,5.97
2023-10-21T17:21:29.894Z,5.78
2023-10-21T17:23:57.476Z,5.65
2023-10-21T17:26:25.802Z,6.88
2023-10-21T17:28:52.408Z,8.00
2023-10-21T17:31:20.182Z,5.95
2023-10-21T17:33:50.749Z,5.80
2023-10-21T17:36:18.184Z,6.30
2023-10-21T17:38:44.843Z,4.03
2023-10-21T17:41:11.374Z,4.80
2023-10-21T17:43:38.088Z,6.05
2023-10-21T17:46:05.702Z,4.30
2023-10-21T17:48:34.353Z,4.97
2023-10-21T17:51:01.144Z,5.13
2023-10-21T17:53:28.750Z,4.55
2023-10-21T17:55:57.849Z,4.68
2023-10-21T17:58:24.407Z,4.05
2023-10-21T18:00:50.973Z,4.55
2023-10-21T18:03:17.826Z,3.88
2023-10-21T18:05:45.554Z,8.15
2023-10-21T18:08:12.173Z,4.90
2023-10-21T18:10:38.665Z,4.30
2023-10-21T18:13:08.162Z,5.55
2023-10-21T18:15:34.903Z,8.02
2023-10-21T18:18:03.698Z,5.00
2023-10-21T18:20:30.809Z,4.22
2023-10-21T18:22:58.847Z,4.38
2023-10-21T18:25:25.648Z,4.93
2023-10-21T18:27:53.855Z,4.75
2023-10-21T18:30:20.487Z,3.75
2023-10-21T18:32:47.670Z,5.40
2023-10-21T18:35:14.632Z,4.93
2023-10-21T18:37:42.575Z,4.65
2023-10-21T18:40:09.840Z,4.57
2023-10-21T18:42:37.258Z,4.65
2023-10-21T18:45:04.237Z,6.32
2023-10-21T18:47:30.818Z,4.97
2023-10-21T18:49:57.358Z,4.40
2023-10-21T18:52:23.887Z,5.40
2023-10-21T18:54:51.610Z,3.95
2023-10-21T18:57:18.477Z,3.22
2023-10-21T18:59:45.062Z,4.90
2023-10-21T19:02:16.417Z,5.50
2023-10-21T19:04:45.560Z,5.07
2023-10-21T19:07:16.069Z,5.15
2023-10-21T19:09:43.486Z,6.35
2023-10-21T19:12:10.282Z,4.28
2023-10-21T19:14:37.335Z,5.07
2023-10-21T19:17:04.619Z,5.15
2023-10-21T19:19:31.737Z,5.75
2023-10-21T19:21:59.614Z,4.43
2023-10-21T19:24:28.121Z,4.60
2023-10-21T19:26:56.073Z,4.15
2023-10-21T19:29:22.853Z,3.70
2023-10-21T19:31:50.839Z,4.80
2023-10-21T19:34:18.793Z,4.15
2023-10-21T19:36:45.839Z,4.38
2023-10-21T19:39:13.388Z,4.30
2023-10-21T19:41:40.631Z,4.53
2023-10-21T19:44:19.091Z,6.82
2023-10-21T19:46:52.298Z,4.65
2023-10-21T19:49:24.612Z,4.25
2023-10-21T19:51:52.024Z,13.98
2023-10-21T19:54:21.159Z,4.75
2023-10-21T19:56:47.708Z,5.57
2023-10-21T19:59:17.801Z,5.20
2023-10-21T20:01:44.733Z,7.43
2023-10-21T20:04:12.141Z,4.75
2023-10-21T20:06:39.083Z,4.85
2023-10-21T20:09:06.628Z,6.55
2023-10-21T20:11:33.645Z,5.13
2023-10-21T20:14:02.754Z,4.18
2023-10-21T20:16:29.328Z,4.15
2023-10-21T20:18:56.175Z,4.35
2023-10-21T20:21:22.893Z,4.38
2023-10-21T20:23:52.556Z,4.18
2023-10-21T20:26:19.204Z,5.55
2023-10-21T20:28:45.777Z,5.22
2023-10-21T20:31:12.977Z,3.97
2023-10-21T20:33:40.379Z,5.03
2023-10-21T20:36:07.727Z,3.72
2023-10-21T20:38:34.686Z,3.55
2023-10-21T20:41:12.259Z,6.20
2023-10-21T20:43:39.515Z,5.07
2023-10-21T20:46:06.959Z,4.65
2023-10-21T20:48:34.448Z,4.95
2023-10-21T20:51:04.722Z,6.55
2023-10-21T20:53:33.322Z,6.70
2023-10-21T20:56:00.077Z,6.05
2023-10-21T20:58:26.844Z,5.25
2023-10-21T21:00:55.254Z,5.93
2023-10-21T21:03:23.112Z,6.50
2023-10-21T21:05:50.095Z,6.18
2023-10-21T21:08:16.624Z,5.50
2023-10-21T21:10:43.965Z,5.93
2023-10-21T21:13:10.592Z,8.43
2023-10-21T21:15:37.896Z,4.40
2023-10-21T21:18:04.732Z,5.35
2023-10-21T21:20:31.440Z,4.10
2023-10-21T21:22:58.375Z,5.93
2023-10-21T21:25:24.866Z,5.28
2023-10-21T21:27:51.454Z,5.43
2023-10-21T21:30:18.546Z,5.25
2023-10-21T21:32:45.381Z,4.32
2023-10-21T21:35:12.165Z,4.53
2023-10-21T21:37:38.849Z,4.47
2023-10-21T21:40:06.395Z,4.93
2023-10-21T21:42:33.251Z,9.23
2023-10-21T21:44:59.776Z,4.18
2023-10-21T21:47:26.583Z,5.68
2023-10-21T21:49:53.195Z,7.30
2023-10-21T21:52:19.745Z,5.78
2023-10-21T21:54:46.956Z,6.22
2023-10-21T21:57:13.864Z,6.22
2023-10-21T21:59:46.855Z,5.03
2023-10-21T22:02:14.944Z,6.05
2023-10-21T22:04:43.208Z,6.22
2023-10-21T22:07:12.973Z,6.63
2023-10-21T22:09:39.693Z,6.15
2023-10-21T22:12:07.697Z,5.90
2023-10-21T22:14:34.438Z,4.35
2023-10-21T22:17:01.723Z,7.30
2023-10-21T22:19:28.231Z,5.10
2023-10-21T22:21:54.798Z,4.97
2023-10-21T22:24:21.462Z,6.55
2023-10-21T22:26:50.623Z,5.75
2023-10-21T22:29:19.624Z,6.00
2023-10-21T22:31:46.351Z,4.20
2023-10-21T22:34:13.318Z,5.07
2023-10-21T22:36:39.929Z,5.80
2023-10-21T22:39:12.363Z,5.03
2023-10-21T22:41:41.097Z,7.25
2023-10-21T22:44:07.732Z,4.13
2023-10-21T22:46:34.327Z,4.47
2023-10-21T22:49:00.932Z,4.50
2023-10-21T22:51:30.161Z,4.80
2023-10-21T22:53:58.106Z,5.10
2023-10-21T22:56:24.625Z,4.20
2023-10-21T22:58:51.232Z,5.65
2023-10-21T23:01:17.770Z,4.75
2023-10-21T23:03:46.225Z,4.40
2023-10-21T23:06:14.975Z,6.22
2023-10-21T23:08:41.749Z,4.70
2023-10-21T23:11:10.044Z,6.55
2023-10-21T23:13:37.883Z,5.30
2023-10-21T23:16:04.776Z,5.88
2023-10-21T23:18:31.614Z,6.40
2023-10-21T23:20:58.754Z,6.50
2023-10-21T23:23:26.430Z,5.00
2023-10-21T23:25:54.317Z,5.55
2023-10-21T23:28:20.969Z,7.22
2023-10-21T23:30:48.401Z,5.70
2023-10-21T23:33:18.312Z,6.00
2023-10-21T23:35:45.361Z,7.45
2023-10-21T23:38:12.256Z,7.10
2023-10-21T23:40:42.460Z,6.78
2023-10-21T23:43:12.243Z,5.70
2023-10-21T23:45:38.891Z,7.75
2023-10-21T23:48:07.139Z,6.22
2023-10-21T23:50:36.046Z,5.72
2023-10-21T23:53:03.122Z,5.43
2023-10-21T23:55:29.702Z,6.10
2023-10-21T23:57:56.267Z,8.25
